• Join FlightAware (Why Join?)
  • Login
  • US Flag 
07:39AM EST


 

Airport Tracker/Info


-or-


 

Live Flight TrackerFlight Track Log ✈ FDX41 ✈ 16-May-2013 ✈ SBKP / VCP - KMEM

Flight Track Log - Related Links

Times and Time Zones

All times are in EDT time to prevent confusion due to time zone crossing. See the FDX41 flight status page for this flight to view local times or setup timezone preferences in your user account.

Time Position Orientation Groundspeed Altitude Reporting Facility
EDT Latitude Longitude Course Direction KTS MPH feet Rate Location/Type
11:10PM 26.1990 -81.5748 324° Northwest  Level Estimated
11:10PM 25.8160 -80.0460 324° Northwest 410 472 38,000  Level FlightAware
11:10PM 25.8890 -80.1020 325° Northwest 412 474 38,000  Level FlightAware
11:11PM 25.9490 -80.1500 324° Northwest 409 471 38,000  Level FlightAware
11:12PM 26.0120 -80.2000 325° Northwest 408 470 38,000  Level FlightAware
11:13PM 26.0790 -80.2540 324° Northwest 408 470 38,000  Level FlightAware
11:13PM 26.1350 -80.2980 325° Northwest 401 461 38,000  Level FlightAware
11:14PM 26.2110 -80.3590 324° Northwest 409 471 38,000  Level FlightAware
11:14PM 26.2530 -80.3920 325° Northwest 408 470 38,000  Level FlightAware
11:15PM 26.3330 -80.4560 324° Northwest 409 471 38,000  Level FlightAware
11:16PM 26.3990 -80.5090 324° Northwest 404 465 38,000  Level FlightAware
11:17PM 26.4510 -80.5520 323° Northwest 404 465 38,000 60 Level FlightAware
11:17PM 26.5310 -80.6150 325° Northwest 403 464 38,100  Climbing FlightAware
11:18PM 26.5940 -80.6660 324° Northwest 403 464 38,000 -120 Descending FlightAware
11:19PM 26.6550 -80.7150 324° Northwest 403 464 38,000  Level FlightAware
11:20PM 26.7190 -80.7670 324° Northwest 403 464 38,000  Level FlightAware
11:20PM 26.7960 -80.8310 323° Northwest 403 464 38,000  Level FlightAware
11:21PM 26.8550 -80.8780 325° Northwest 403 464 38,000  Level FlightAware
11:22PM 26.9310 -80.9390 324° Northwest 400 460 38,000  Level FlightAware
11:23PM 27.0170 -81.0100 324° Northwest 400 460 38,000  Level FlightAware
11:23PM 27.0670 -81.0520 323° Northwest 400 460 38,000  Level FlightAware
11:24PM 27.1440 -81.1120 325° Northwest 399 459 38,000  Level FlightAware
11:25PM 27.2150 -81.1700 324° Northwest 405 466 38,000  Level FlightAware
11:26PM 27.2760 -81.2200 324° Northwest 407 468 38,000  Level FlightAware
11:26PM 27.3460 -81.2780 324° Northwest 408 470 38,000  Level FlightAware
11:27PM 27.4060 -81.3250 325° Northwest 409 471 38,000  Level FlightAware
11:28PM 27.4690 -81.3780 323° Northwest 410 472 38,000 60 Level FlightAware
11:28PM 27.5370 -81.4340 324° Northwest 411 473 38,100 60 Climbing FlightAware
11:29PM 27.5990 -81.4850 324° Northwest 412 474 38,100 -120 Level FlightAware
11:30PM 27.6680 -81.5420 324° Northwest 412 474 38,000 -120 Descending FlightAware
11:30PM 27.7310 -81.5940 324° Northwest 412 474 38,000  Level FlightAware
11:31PM 27.7990 -81.6500 324° Northwest 411 473 38,000  Level FlightAware
11:32PM 27.8590 -81.7000 324° Northwest 411 473 38,000  Level FlightAware
11:33PM 27.9220 -81.7520 324° Northwest 409 471 38,000  Level FlightAware
11:33PM 27.9920 -81.8110 323° Northwest 409 471 38,000  Level FlightAware
11:34PM 28.0600 -81.8670 324° Northwest 410 472 38,000  Level FlightAware
11:35PM 28.1220 -81.9180 324° Northwest 413 475 38,000  Level FlightAware
11:35PM 28.1820 -81.9680 324° Northwest 416 479 38,000 60 Level FlightAware
11:36PM 28.2460 -82.0220 323° Northwest 420 483 38,100 60 Climbing FlightAware
11:37PM 28.3180 -82.0820 324° Northwest 422 486 38,100 -120 Level FlightAware
11:37PM 28.3800 -82.1340 324° Northwest 422 486 38,000 -120 Descending FlightAware
11:38PM 28.4500 -82.1930 323° Northwest 422 486 38,000  Level FlightAware
11:39PM 28.5140 -82.2460 324° Northwest 421 484 38,000  Level FlightAware
11:40PM 28.5760 -82.2990 323° Northwest 421 484 38,000  Level FlightAware
11:40PM 28.6470 -82.3600 323° Northwest 420 483 38,000  Level FlightAware
11:41PM 28.7170 -82.4190 324° Northwest 420 483 38,000  Level FlightAware
11:42PM 28.7790 -82.4710 324° Northwest 418 481 38,000  Level FlightAware
11:42PM 28.8410 -82.5240 323° Northwest 417 480 38,000  Level FlightAware
11:43PM 28.9120 -82.5850 323° Northwest 418 481 38,000  Level FlightAware
11:44PM 28.9840 -82.6460 323° Northwest 422 486 38,000  Level FlightAware
11:45PM 29.0780 -82.7250 324° Northwest 425 489 38,000 60 Level FlightAware
11:46PM 29.1460 -82.7840 323° Northwest 426 490 38,100  Climbing FlightAware
11:46PM 29.2130 -82.8410 323° Northwest 426 490 38,000 -120 Descending FlightAware
11:47PM 29.2690 -82.8880 324° Northwest 423 487 38,000  Level FlightAware
11:48PM 29.3700 -82.9760 323° Northwest 416 479 38,000  Level FlightAware
11:49PM 29.4230 -83.0210 324° Northwest 416 479 38,000  Level FlightAware
11:50PM 29.5160 -83.1020 323° Northwest 421 484 38,000  Level FlightAware
11:51PM 29.6100 -83.1830 323° Northwest 424 488 38,000  Level FlightAware
11:51PM 29.6750 -83.2390 323° Northwest 425 489 38,000  Level FlightAware
11:52PM 29.7360 -83.2920 323° Northwest 423 487 38,000  Level FlightAware
11:53PM 29.8070 -83.3550 322° Northwest 424 488 38,000  Level FlightAware
11:53PM 29.8700 -83.4090 323° Northwest 423 487 38,000  Level FlightAware
11:54PM 29.9420 -83.4720 323° Northwest 422 486 38,000  Level FlightAware
11:55PM 30.0030 -83.5250 323° Northwest 423 487 38,000  Level FlightAware
11:55PM 30.0650 -83.5790 323° Northwest 428 493 38,000  Level FlightAware
11:56PM 30.1390 -83.6440 323° Northwest 425 489 38,000 60 Level FlightAware
11:57PM 30.2010 -83.6980 323° Northwest 427 491 38,100 60 Climbing FlightAware
11:58PM 30.2580 -83.7500 322° Northwest 427 491 38,100 -120 Level FlightAware
11:58PM 30.3460 -83.8260 323° Northwest 425 489 38,000 -120 Descending FlightAware
11:59PM 30.4150 -83.8870 323° Northwest 423 487 38,000  Level FlightAware
12:00AM 30.4970 -83.9600 323° Northwest 423 487 38,000  Level FlightAware
12:01AM 30.5810 -84.0340 323° Northwest 429 494 38,000  Level FlightAware
12:02AM 30.6400 -84.0860 323° Northwest 434 499 38,000 60 Level FlightAware
12:02AM 30.7050 -84.1450 322° Northwest 437 503 38,100  Climbing FlightAware
12:03AM 30.7740 -84.2070 322° Northwest 440 506 38,000 -120 Descending FlightAware
12:04AM 30.8390 -84.2640 323° Northwest 437 503 38,000  Level FlightAware
12:04AM 30.8990 -84.3170 323° Northwest 431 496 38,000  Level FlightAware
12:05AM 30.9550 -84.3680 322° Northwest 429 494 38,000  Level FlightAware
12:06AM 31.0400 -84.4430 323° Northwest 426 490 38,000  Level FlightAware
12:06AM 31.1030 -84.5010 322° Northwest 426 490 38,000  Level FlightAware
12:07AM 31.0750 -84.4760 143° Southeast 426 490 38,000  Level FlightAware
12:09AM 31.0400 -84.4430 141° Southeast 431 496 38,000  Level FlightAware
12:09AM 31.3850 -84.7560 322° Northwest 433 498 38,000  Level FlightAware
12:10AM 31.4460 -84.8120 322° Northwest 433 498 38,000  Level FlightAware
12:11AM 31.5000 -84.8620 322° Northwest 433 498 38,000  Level FlightAware
12:12AM 31.5670 -84.9230 322° Northwest 433 498 38,000  Level FlightAware
12:12AM 31.6210 -84.9720 322° Northwest 433 498 38,000  Level FlightAware
12:13AM 31.6740 -85.0220 321° Northwest 433 498 38,000  Level FlightAware
12:14AM 31.7280 -85.0710 322° Northwest 433 498 38,000  Level FlightAware
12:14AM 31.7820 -85.1200 322° Northwest 433 498 38,000  Level FlightAware
12:15AM 31.8490 -85.1820 322° Northwest 433 498 38,000  Level FlightAware
12:16AM 31.9030 -85.2310 322° Northwest 433 498 38,000  Level FlightAware
12:16AM 31.9560 -85.2810 321° Northwest 433 498 38,000  Level FlightAware
12:17AM 32.0100 -85.3300 322° Northwest 433 498 38,000  Level FlightAware
12:18AM 32.1960 -85.5000 322° Northwest 416 479 38,000  Level FlightAware
12:19AM 32.2550 -85.5570 321° Northwest 416 479 38,000  Level FlightAware
12:19AM 32.3060 -85.6060 321° Northwest 416 479 38,000  Level FlightAware
12:20AM 32.3920 -85.6820 323° Northwest 431 496 38,000 60 Level FlightAware
12:21AM 32.4400 -85.7280 321° Northwest 433 498 38,100 60 Climbing FlightAware
12:21AM 32.5230 -85.8060 322° Northwest 431 496 38,100 -120 Level FlightAware
12:22AM 32.5850 -85.8630 322° Northwest 430 495 38,000 -120 Descending FlightAware
12:23AM 32.6590 -85.9340 321° Northwest 428 493 38,000  Level FlightAware
12:23AM 32.7200 -85.9910 322° Northwest 425 489 38,000  Level FlightAware
12:24AM 32.7840 -86.0520 321° Northwest 423 487 38,000  Level FlightAware
12:25AM 32.8500 -86.1140 322° Northwest 424 488 38,000 -120 Level FlightAware
12:26AM 32.9120 -86.1730 321° Northwest 427 491 37,900  Descending FlightAware
12:26AM 32.9820 -86.2380 322° Northwest 437 503 38,000 60 Climbing FlightAware
12:27AM 33.0340 -86.2880 321° Northwest 441 507 38,000  Level FlightAware
12:28AM 33.1420 -86.3910 321° Northwest 436 502 38,000  Level FlightAware
12:29AM 33.2050 -86.4510 321° Northwest 434 499 38,000  Level FlightAware
12:29AM 33.2610 -86.5060 321° Northwest 433 498 38,000  Level FlightAware
12:30AM 33.3280 -86.5690 322° Northwest 433 498 38,000  Level FlightAware
12:31AM 33.4020 -86.6400 321° Northwest 440 506 38,000  Level FlightAware
12:32AM 33.4770 -86.7120 321° Northwest 443 510 38,000  Level FlightAware
12:32AM 33.5350 -86.7690 321° Northwest 440 506 38,000  Level FlightAware
12:33AM 33.6130 -86.8440 321° Northwest 438 504 38,000  Level FlightAware
12:34AM 33.6790 -86.9210 316° Northwest 435 501 38,000  Level FlightAware
12:34AM 33.7250 -87.0140 301° West 433 498 38,000  Level FlightAware
12:35AM 33.7580 -87.0830 300° West 433 498 38,000  Level FlightAware
12:36AM 33.8330 -87.2390 300° West 439 505 38,000  Level FlightAware
12:37AM 33.8720 -87.3210 300° West 437 503 38,000  Level FlightAware
12:38AM 33.9060 -87.3930 300° West 437 503 38,000  Level FlightAware
12:38AM 33.9400 -87.4650 300° West 437 503 38,000  Level FlightAware
12:39AM 33.9830 -87.5540 300° West 437 503 38,000  Level FlightAware
12:40AM 34.0180 -87.6260 300° West 437 503 38,000  Level FlightAware
12:40AM 34.0520 -87.6980 300° West 437 503 38,000  Level FlightAware
12:41AM 34.0860 -87.7700 300° West 437 503 38,000  Level FlightAware
12:42AM 34.1210 -87.8420 300° West 437 503 38,000  Level FlightAware
12:43AM 34.2160 -88.0460 299° West 443 510 38,000  Level FlightAware
12:43AM 34.2520 -88.1210 300° West 443 510 38,000  Level FlightAware
12:44AM 34.2860 -88.1940 299° West 443 510 38,000  Level FlightAware
12:45AM 34.3300 -88.2850 300° West 443 510 38,000  Level FlightAware
12:45AM 34.3650 -88.3580 300° West 443 510 38,000  Level FlightAware
12:46AM 34.4000 -88.4310 300° West 443 510 38,000  Level FlightAware
12:47AM 34.4340 -88.5040 299° West 443 510 38,000  Level FlightAware
12:47AM 34.4690 -88.5780 300° West 443 510 38,000  Level FlightAware
12:48AM 34.5130 -88.6690 300° West 443 510 38,000  Level FlightAware
12:49AM 34.5480 -88.7420 300° West 443 510 38,000  Level FlightAware
12:50AM 34.5830 -88.8160 300° West 443 510 38,000  Level FlightAware
12:50AM 34.6170 -88.8890 300° West 443 510 38,000  Level FlightAware
12:51AM 34.6520 -88.9620 300° West 443 510 38,000  Level FlightAware
12:52AM 34.6960 -89.0540 300° West 443 510 38,000  Level FlightAware
12:52AM 34.7310 -89.1280 300° West 443 510 38,000 -19,740 Level FlightAware
12:53AM 34.7333 -89.3500 300° West 360 414 15,000 -22,260 Descending KMEM
12:53AM 34.7492 -89.3992 291° West 363 418 14,300 -1,080 Descending Memphis Center
12:54AM 34.7769 -89.5125 287° West 338 389 13,400 -840 Descending Memphis Center
12:55AM 34.8172 -89.5881 303° West 290 334 12,700 -960 Descending Memphis Center
12:56AM 34.8531 -89.6611 301° West 262 302 11,500 -1,200 Descending Memphis Center
12:57AM 34.8931 -89.7317 305° West 255 293 10,300 -1,140 Descending Memphis Center
12:58AM 34.9247 -89.8000 299° West 255 293 9,300 -1,080 Descending Memphis Center
12:59AM 34.9625 -89.8731 302° West 250 288 8,200 -1,140 Descending Memphis Center
01:00AM 35.0000 -89.8833 347° North 267 307 7,600 -1,140 Descending KMEM
01:01AM 35.0667 -89.8833 360° North 262 302 6,500 -1,140 Descending KMEM
01:02AM 35.1333 -89.8833 360° North 250 288 5,400 -1,140 Descending KMEM
01:03AM 35.2167 -89.8833 360° North 251 289 4,300 -1,140 Descending KMEM
01:04AM 35.2667 -89.8833 360° North 252 290 3,300 -720 Descending KMEM
01:05AM 35.3167 -89.9167 331° Northwest 206 237 3,000 -180 Descending KMEM
01:06AM 35.3000 -89.9667 248° West 179 206 3,000  Level KMEM
01:07AM 35.2500 -89.9667 180° South 178 205 3,000 -420 Level KMEM
01:08AM 35.2000 -89.9667 180° South 168 193 2,300 -540 Descending KMEM
01:09AM 35.1667 -89.9667 180° South 155 178 2,000 -240 Descending KMEM
01:10AM 35.1167 -89.9667 180° South 143 165 1,900 -480 Descending KMEM
01:11AM 35.0833 -89.9667 180° South 125 144 1,100 -900 Descending KMEM
01:13AM 35.0424 -89.9767 309° West  Level Estimated